createdAt,value
2019-03-11T00:01:35.142Z,8.73
2019-03-11T00:04:03.102Z,7.30
2019-03-11T00:06:31.107Z,7.50
2019-03-11T00:08:58.972Z,9.30
2019-03-11T00:11:27.019Z,9.13
2019-03-11T00:13:55.326Z,7.73
2019-03-11T00:16:23.162Z,8.93
2019-03-11T00:18:51.611Z,9.37
2019-03-11T00:21:19.932Z,9.77
2019-03-11T00:23:47.915Z,8.70
2019-03-11T00:26:15.793Z,7.27
2019-03-11T00:28:43.638Z,7.93
2019-03-11T00:31:11.807Z,12.00
2019-03-11T00:33:40.153Z,10.23
2019-03-11T00:36:08.363Z,8.20
2019-03-11T00:38:36.223Z,8.63
2019-03-11T00:41:04.552Z,10.90
2019-03-11T00:43:32.757Z,8.50
2019-03-11T00:46:01.068Z,8.90
2019-03-11T00:48:29.214Z,12.20
2019-03-11T00:50:57.725Z,10.43
2019-03-11T00:53:26.167Z,8.77
2019-03-11T00:55:54.461Z,7.93
2019-03-11T00:58:22.562Z,8.93
2019-03-11T01:00:50.815Z,11.20
2019-03-11T01:03:18.671Z,7.53
2019-03-11T01:05:46.726Z,7.80
2019-03-11T01:08:14.814Z,9.97
2019-03-11T01:10:43.484Z,11.27
2019-03-11T01:13:11.439Z,7.20
2019-03-11T01:15:39.870Z,9.17
2019-03-11T01:18:08.309Z,10.37
2019-03-11T01:20:36.498Z,9.23
2019-03-11T01:23:23.784Z,10.50
2019-03-11T01:25:52.271Z,9.10
2019-03-11T01:28:20.640Z,8.90
2019-03-11T01:30:48.893Z,10.90
2019-03-11T01:33:16.887Z,8.70
2019-03-11T01:35:45.195Z,10.90
2019-03-11T01:38:13.526Z,13.47
2019-03-11T01:40:41.465Z,10.10
2019-03-11T01:43:09.374Z,10.87
2019-03-11T01:45:37.602Z,10.00
2019-03-11T01:48:05.650Z,8.30
2019-03-11T01:50:34.006Z,7.43
2019-03-11T01:53:03.432Z,10.13
2019-03-11T01:55:31.283Z,9.40
2019-03-11T01:57:59.410Z,9.47
2019-03-11T02:00:27.463Z,10.00
2019-03-11T02:02:55.468Z,8.10
2019-03-11T02:05:23.331Z,7.03
2019-03-11T02:07:51.640Z,8.23
2019-03-11T02:10:20.131Z,8.60
2019-03-11T02:12:48.298Z,10.77
2019-03-11T02:15:16.538Z,8.27
2019-03-11T02:17:44.818Z,8.47
2019-03-11T02:20:13.886Z,8.10
2019-03-11T02:22:41.826Z,8.67
2019-03-11T02:25:10.512Z,8.03
2019-03-11T02:27:38.607Z,10.20
2019-03-11T02:30:08.712Z,10.03
2019-03-11T02:32:36.735Z,9.80
2019-03-11T02:35:05.183Z,8.60
2019-03-11T02:37:33.160Z,9.57
2019-03-11T02:40:01.449Z,8.40
2019-03-11T02:42:29.580Z,11.50
2019-03-11T02:44:57.823Z,11.73
2019-03-11T02:47:26.250Z,11.27
2019-03-11T02:49:54.624Z,9.40
2019-03-11T02:52:23.022Z,8.27
2019-03-11T02:54:51.043Z,9.13
2019-03-11T02:57:18.989Z,9.77
2019-03-11T02:59:47.334Z,9.03
2019-03-11T03:02:37.081Z,10.17
2019-03-11T03:05:15.036Z,9.53
2019-03-11T03:07:43.405Z,9.57
2019-03-11T03:10:11.274Z,10.67
2019-03-11T03:12:39.130Z,6.90
2019-03-11T03:15:07.348Z,10.43
2019-03-11T03:17:35.599Z,9.03
2019-03-11T03:20:04.362Z,7.37
2019-03-11T03:22:32.769Z,9.00
2019-03-11T03:25:01.112Z,6.60
2019-03-11T03:27:29.429Z,9.23
2019-03-11T03:29:57.823Z,9.70
2019-03-11T03:32:25.772Z,8.40
2019-03-11T03:34:53.686Z,8.33
2019-03-11T03:37:21.928Z,9.10
2019-03-11T03:39:50.373Z,5.83
2019-03-11T03:42:18.612Z,7.37
2019-03-11T03:45:21.533Z,7.67
2019-03-11T03:47:50.065Z,9.83
2019-03-11T03:50:18.307Z,7.83
2019-03-11T03:52:46.126Z,6.17
2019-03-11T03:55:14.205Z,8.13
2019-03-11T03:57:42.467Z,10.10
2019-03-11T04:00:11.019Z,9.03
2019-03-11T04:02:39.314Z,9.77
2019-03-11T04:05:07.636Z,10.57
2019-03-11T04:07:35.606Z,12.07
2019-03-11T04:10:04.277Z,9.27
2019-03-11T04:12:32.166Z,10.37
2019-03-11T04:15:00.498Z,11.07
2019-03-11T04:17:28.432Z,8.93
2019-03-11T04:19:56.511Z,10.07
2019-03-11T04:22:24.568Z,12.30
2019-03-11T04:24:52.517Z,11.67
2019-03-11T04:27:20.531Z,8.83
2019-03-11T04:29:48.727Z,9.33
2019-03-11T04:32:16.615Z,10.67
2019-03-11T04:34:44.596Z,10.50
2019-03-11T04:37:12.545Z,11.57
2019-03-11T04:39:40.407Z,13.03
2019-03-11T04:42:08.675Z,13.23
2019-03-11T04:44:36.551Z,13.17
2019-03-11T04:47:04.846Z,12.50
2019-03-11T04:49:32.774Z,9.83
2019-03-11T04:52:00.631Z,10.80
2019-03-11T04:54:28.581Z,10.60
2019-03-11T04:56:56.487Z,9.37
2019-03-11T04:59:24.400Z,10.33
2019-03-11T05:01:52.318Z,10.07
2019-03-11T05:04:20.241Z,9.40
2019-03-11T05:06:48.162Z,11.07
2019-03-11T05:09:16.018Z,10.40
2019-03-11T05:11:43.974Z,7.80
2019-03-11T05:14:23.044Z,8.60
2019-03-11T05:16:51.027Z,8.47
2019-03-11T05:19:18.943Z,8.83
2019-03-11T05:21:46.862Z,9.30
2019-03-11T05:24:14.775Z,9.57
2019-03-11T05:26:42.791Z,8.90
2019-03-11T05:29:10.772Z,11.27
2019-03-11T05:31:38.761Z,11.50
2019-03-11T05:34:06.794Z,7.73
2019-03-11T05:36:34.714Z,9.80
2019-03-11T05:39:03.122Z,8.63
2019-03-11T05:41:31.228Z,9.40
2019-03-11T05:43:59.225Z,9.70
2019-03-11T05:46:27.100Z,11.20
2019-03-11T05:48:55.039Z,12.40
2019-03-11T05:51:31.111Z,12.93
2019-03-11T05:53:52.668Z,10.33
2019-03-11T05:56:20.599Z,11.57
2019-03-11T05:58:48.431Z,12.93
2019-03-11T06:01:16.526Z,11.80
2019-03-11T06:03:44.563Z,11.43
2019-03-11T06:06:12.594Z,11.37
2019-03-11T06:08:40.581Z,11.60
2019-03-11T06:11:15.184Z,8.07
2019-03-11T06:13:43.113Z,10.93
2019-03-11T06:16:11.015Z,9.60
2019-03-11T06:18:44.825Z,8.27
2019-03-11T06:21:15.785Z,12.70
2019-03-11T06:23:43.658Z,11.87
2019-03-11T06:26:11.631Z,10.93
2019-03-11T06:28:39.610Z,12.27
2019-03-11T06:31:07.493Z,11.53
2019-03-11T06:33:35.466Z,14.00
2019-03-11T06:36:03.559Z,13.77
2019-03-11T06:38:31.465Z,12.23
2019-03-11T06:40:59.463Z,13.43
2019-03-11T06:43:27.406Z,12.67
2019-03-11T06:45:55.359Z,15.77
2019-03-11T06:48:23.343Z,13.30
2019-03-11T06:50:51.202Z,15.80
2019-03-11T06:53:19.119Z,17.00
2019-03-11T06:55:47.331Z,17.33
2019-03-11T06:58:15.169Z,16.93
2019-03-11T07:00:43.231Z,21.13
2019-03-11T07:03:11.087Z,25.77
2019-03-11T07:05:39.043Z,22.77
2019-03-11T07:08:06.975Z,20.70
2019-03-11T07:10:34.913Z,21.30
2019-03-11T07:13:03.915Z,18.03
2019-03-11T07:15:31.992Z,22.00
2019-03-11T07:18:00.007Z,20.00
2019-03-11T07:20:28.115Z,18.03
2019-03-11T07:22:56.103Z,18.57
2019-03-11T07:25:23.979Z,14.27
2019-03-11T07:27:52.039Z,19.87
2019-03-11T07:30:20.735Z,22.60
2019-03-11T07:32:48.819Z,21.30
2019-03-11T07:35:16.838Z,25.37
2019-03-11T07:37:44.759Z,28.57
2019-03-11T07:40:13.011Z,26.63
2019-03-11T07:42:41.007Z,25.03
2019-03-11T07:45:08.969Z,26.57
2019-03-11T07:47:36.851Z,25.37
2019-03-11T07:50:05.164Z,20.03
2019-03-11T07:52:33.098Z,20.67
2019-03-11T07:55:01.076Z,23.13
2019-03-11T07:57:29.083Z,22.57
2019-03-11T07:59:56.960Z,14.07
2019-03-11T08:02:24.851Z,18.97
2019-03-11T08:04:52.858Z,21.77
2019-03-11T08:07:20.807Z,21.00
2019-03-11T08:09:48.761Z,16.10
2019-03-11T08:12:16.754Z,20.23
2019-03-11T08:14:57.750Z,21.43
2019-03-11T08:17:25.766Z,28.87
2019-03-11T08:19:53.650Z,27.90
2019-03-11T08:22:21.622Z,28.70
2019-03-11T08:24:49.563Z,25.87
2019-03-11T08:27:17.549Z,22.30
2019-03-11T08:29:45.435Z,19.53
2019-03-11T08:32:13.382Z,18.83
2019-03-11T08:34:41.558Z,18.47
2019-03-11T08:37:09.455Z,21.60
2019-03-11T08:39:37.406Z,19.47
2019-03-11T08:42:05.449Z,13.33
2019-03-11T08:44:33.510Z,21.57
2019-03-11T08:47:01.544Z,21.57
2019-03-11T08:49:29.526Z,17.80
2019-03-11T08:51:57.410Z,15.73
2019-03-11T08:54:25.388Z,18.43
2019-03-11T08:56:53.343Z,17.60
2019-03-11T08:59:21.281Z,20.47
2019-03-11T09:01:49.210Z,18.10
2019-03-11T09:04:17.058Z,15.70
2019-03-11T09:06:44.911Z,18.63
2019-03-11T09:09:13.039Z,24.13
2019-03-11T09:11:40.932Z,16.03
2019-03-11T09:14:12.249Z,16.80
2019-03-11T09:16:40.411Z,26.43
2019-03-11T09:19:08.498Z,17.20
2019-03-11T09:21:36.422Z,21.13
2019-03-11T09:24:04.624Z,18.70
2019-03-11T09:26:32.594Z,17.03
2019-03-11T09:29:00.542Z,20.57
2019-03-11T09:31:28.515Z,19.13
2019-03-11T09:33:56.907Z,20.03
2019-03-11T09:36:24.899Z,17.70
2019-03-11T09:38:52.768Z,15.20
2019-03-11T09:41:20.787Z,15.07
2019-03-11T09:43:48.626Z,20.27
2019-03-11T09:46:16.490Z,18.50
2019-03-11T09:48:44.973Z,17.00
2019-03-11T09:51:13.584Z,18.53
2019-03-11T09:53:41.470Z,19.90
2019-03-11T09:56:09.803Z,14.93
2019-03-11T09:58:37.806Z,20.97
2019-03-11T10:01:05.691Z,21.80
2019-03-11T10:03:33.586Z,20.33
2019-03-11T10:06:01.794Z,15.73
2019-03-11T10:08:29.747Z,19.57
2019-03-11T10:10:57.670Z,15.60
2019-03-11T10:13:27.531Z,17.73
2019-03-11T10:15:55.187Z,17.03
2019-03-11T10:18:23.123Z,16.47
2019-03-11T10:20:50.958Z,18.17
2019-03-11T10:23:18.780Z,20.53
2019-03-11T10:25:46.756Z,14.50
2019-03-11T10:28:14.931Z,16.77
2019-03-11T10:30:42.934Z,14.97
2019-03-11T10:33:11.282Z,17.13
2019-03-11T10:35:39.218Z,15.93
2019-03-11T10:38:07.079Z,15.87
2019-03-11T10:40:35.024Z,14.57
2019-03-11T10:43:04.360Z,13.87
2019-03-11T10:45:32.486Z,16.10
2019-03-11T10:48:00.498Z,13.37
2019-03-11T10:50:28.668Z,12.93
2019-03-11T10:52:56.739Z,15.83
2019-03-11T10:55:24.680Z,15.20
2019-03-11T10:57:52.717Z,13.80
2019-03-11T11:00:22.755Z,12.43
2019-03-11T11:02:51.083Z,7.43
2019-03-11T11:05:19.140Z,12.60
2019-03-11T11:07:47.547Z,14.53
2019-03-11T11:10:15.697Z,14.70
2019-03-11T11:12:43.870Z,13.67
2019-03-11T11:15:35.389Z,16.90
2019-03-11T11:18:05.299Z,13.33
2019-03-11T11:20:33.407Z,10.13
2019-03-11T11:23:03.026Z,12.37
2019-03-11T11:25:31.049Z,13.50
2019-03-11T11:27:59.207Z,14.77
2019-03-11T11:30:27.591Z,10.97
2019-03-11T11:32:56.149Z,14.35
2019-03-11T11:35:24.351Z,16.65
2019-03-11T11:37:52.255Z,10.93
2019-03-11T11:40:22.091Z,14.83
2019-03-11T11:42:50.278Z,12.23
2019-03-11T11:45:19.285Z,16.40
2019-03-11T11:47:47.590Z,14.17
2019-03-11T11:50:16.885Z,12.80
2019-03-11T11:52:44.691Z,16.25
2019-03-11T11:55:13.110Z,17.70
2019-03-11T11:57:41.392Z,16.50
2019-03-11T12:00:12.902Z,16.23
2019-03-11T12:02:40.919Z,13.93
2019-03-11T12:05:10.211Z,13.77
2019-03-11T12:07:38.590Z,15.00
2019-03-11T12:10:07.206Z,13.00
2019-03-11T12:12:35.313Z,13.20
2019-03-11T12:15:44.914Z,13.53
2019-03-11T12:18:11.340Z,9.93
2019-03-11T12:20:39.261Z,12.73
2019-03-11T12:23:07.217Z,9.90
2019-03-11T12:25:35.180Z,12.57
2019-03-11T12:28:04.786Z,11.20
2019-03-11T12:30:32.875Z,11.00
2019-03-11T12:33:00.794Z,12.95
2019-03-11T12:35:28.818Z,11.80
2019-03-11T12:37:56.993Z,12.60
2019-03-11T12:40:25.471Z,11.57
2019-03-11T12:42:53.590Z,13.18
2019-03-11T12:45:21.951Z,10.67
2019-03-11T12:47:50.288Z,16.93
2019-03-11T12:50:19.064Z,12.90
2019-03-11T12:52:47.010Z,11.15
2019-03-11T12:55:15.380Z,12.18
2019-03-11T12:57:43.298Z,10.98
2019-03-11T13:00:13.618Z,8.95
2019-03-11T13:02:41.566Z,16.45
2019-03-11T13:05:10.095Z,8.45
2019-03-11T13:07:38.800Z,13.10
2019-03-11T13:10:08.131Z,11.12
2019-03-11T13:12:36.096Z,9.80
2019-03-11T13:15:47.401Z,11.25
2019-03-11T13:18:34.032Z,8.55
2019-03-11T13:21:23.238Z,12.07
2019-03-11T13:23:51.059Z,10.32
2019-03-11T13:26:19.051Z,9.05
2019-03-11T13:28:46.987Z,10.18
2019-03-11T13:31:14.917Z,10.50
2019-03-11T13:33:42.944Z,9.15
2019-03-11T13:36:10.842Z,9.65
2019-03-11T13:38:38.747Z,9.93
2019-03-11T13:41:06.755Z,9.50
2019-03-11T13:43:35.021Z,9.20
2019-03-11T13:46:03.032Z,9.93
2019-03-11T13:48:31.151Z,10.93
2019-03-11T13:50:59.158Z,12.95
2019-03-11T13:53:27.492Z,12.70
2019-03-11T13:55:55.438Z,10.48
2019-03-11T13:58:23.486Z,10.25
2019-03-11T14:00:56.648Z,19.30
2019-03-11T14:03:21.691Z,12.78
2019-03-11T14:05:49.906Z,10.30
2019-03-11T14:08:18.024Z,9.83
2019-03-11T14:10:45.933Z,8.00
2019-03-11T14:13:13.900Z,7.03
2019-03-11T14:16:11.608Z,5.95
2019-03-11T14:18:38.813Z,2.60
2019-03-11T14:21:06.990Z,3.17
2019-03-11T14:23:35.022Z,4.13
2019-03-11T14:26:03.130Z,2.90
2019-03-11T14:28:31.118Z,4.20
2019-03-11T14:30:59.090Z,8.27
2019-03-11T14:33:27.035Z,3.77
2019-03-11T14:35:55.334Z,3.33
2019-03-11T14:38:23.403Z,4.17
2019-03-11T14:40:51.638Z,2.93
2019-03-11T14:43:19.621Z,1.77
2019-03-11T14:45:47.720Z,2.87
2019-03-11T14:48:15.826Z,2.23
2019-03-11T14:50:43.766Z,2.10
2019-03-11T14:53:12.138Z,2.70
2019-03-11T14:55:40.120Z,1.50
2019-03-11T14:58:08.022Z,1.60
2019-03-11T15:00:35.966Z,2.20
2019-03-11T15:03:05.366Z,1.53
2019-03-11T15:05:33.319Z,2.20
2019-03-11T15:08:01.187Z,1.30
2019-03-11T15:10:29.586Z,3.40
2019-03-11T15:12:57.850Z,3.30
2019-03-11T15:15:52.593Z,4.40
2019-03-11T15:18:20.757Z,2.20
2019-03-11T15:20:48.684Z,4.87
2019-03-11T15:23:20.709Z,2.63
2019-03-11T15:25:46.323Z,31.97
2019-03-11T15:28:14.908Z,2.90
2019-03-11T15:30:42.956Z,1.90
2019-03-11T15:33:10.959Z,1.93
2019-03-11T15:35:38.920Z,2.90
2019-03-11T15:38:06.878Z,5.03
2019-03-11T15:40:35.022Z,6.20
2019-03-11T15:43:04.182Z,5.63
2019-03-11T15:45:38.454Z,5.23
2019-03-11T15:48:01.855Z,5.87
2019-03-11T15:50:29.983Z,6.90
2019-03-11T15:52:57.939Z,5.93
2019-03-11T15:55:26.035Z,7.77
2019-03-11T15:57:53.976Z,3.27
2019-03-11T16:00:22.329Z,12.37
2019-03-11T16:02:50.192Z,13.17
2019-03-11T16:05:18.929Z,5.40
2019-03-11T16:07:47.716Z,7.87
2019-03-11T16:10:17.305Z,3.30
2019-03-11T16:12:45.580Z,2.77
2019-03-11T16:15:58.276Z,9.00
2019-03-11T16:18:24.513Z,2.00
2019-03-11T16:20:52.539Z,4.07
2019-03-11T16:23:20.445Z,5.47
2019-03-11T16:25:48.365Z,2.33
2019-03-11T16:28:16.335Z,2.40
2019-03-11T16:30:44.399Z,3.37
2019-03-11T16:33:12.312Z,0.97
2019-03-11T16:35:40.697Z,2.87
2019-03-11T16:38:08.761Z,1.57
2019-03-11T16:40:36.627Z,1.83
2019-03-11T16:43:05.695Z,1.47
2019-03-11T16:45:33.824Z,6.73
2019-03-11T16:48:01.854Z,5.60
2019-03-11T16:50:29.879Z,2.70
2019-03-11T16:52:57.854Z,2.20
2019-03-11T16:55:28.409Z,2.17
2019-03-11T16:57:56.305Z,3.03
2019-03-11T17:00:28.347Z,2.33
2019-03-11T17:02:56.275Z,1.80
2019-03-11T17:05:24.268Z,3.57
2019-03-11T17:07:52.470Z,2.27
2019-03-11T17:10:21.160Z,3.63
2019-03-11T17:12:49.522Z,1.13
2019-03-11T17:15:52.900Z,3.17
2019-03-11T17:18:20.231Z,1.33
2019-03-11T17:20:49.080Z,2.80
2019-03-11T17:23:17.634Z,2.53
2019-03-11T17:25:46.410Z,11.37
2019-03-11T17:28:15.023Z,3.87
2019-03-11T17:30:44.345Z,9.40
2019-03-11T17:33:13.155Z,5.50
2019-03-11T17:35:41.739Z,5.30
2019-03-11T17:38:10.697Z,2.60
2019-03-11T17:40:39.733Z,2.60
2019-03-11T17:43:08.561Z,3.57
2019-03-11T17:45:37.502Z,2.30
2019-03-11T17:48:06.563Z,3.43
2019-03-11T17:50:35.354Z,5.63
2019-03-11T17:53:05.830Z,4.70
2019-03-11T17:55:34.258Z,2.97
2019-03-11T17:58:04.075Z,2.97
2019-03-11T18:00:33.459Z,20.43
2019-03-11T18:03:01.854Z,15.13
2019-03-11T18:05:30.714Z,18.83
2019-03-11T18:08:00.282Z,9.43
2019-03-11T18:10:29.434Z,5.77
2019-03-11T18:12:58.178Z,3.33
2019-03-11T18:16:02.494Z,4.77
2019-03-11T18:18:33.352Z,3.03
2019-03-11T18:21:00.598Z,5.60
2019-03-11T18:23:29.387Z,6.77
2019-03-11T18:25:58.078Z,2.40
2019-03-11T18:28:26.866Z,1.37
2019-03-11T18:30:55.725Z,1.80
2019-03-11T18:33:24.486Z,2.60
2019-03-11T18:35:53.123Z,3.07
2019-03-11T18:38:21.856Z,2.53
2019-03-11T18:40:50.709Z,6.17
2019-03-11T18:43:20.920Z,4.60
2019-03-11T18:45:49.964Z,4.17
2019-03-11T18:48:18.699Z,2.63
2019-03-11T18:50:47.486Z,4.03
2019-03-11T18:53:16.201Z,2.87
2019-03-11T18:55:46.049Z,1.17
2019-03-11T18:58:14.682Z,6.53
2019-03-11T19:00:43.139Z,2.60
2019-03-11T19:03:11.455Z,3.20
2019-03-11T19:05:39.887Z,3.50
2019-03-11T19:08:07.931Z,3.00
2019-03-11T19:10:36.310Z,10.43
2019-03-11T19:13:06.139Z,5.20
2019-03-11T19:16:12.745Z,4.67
2019-03-11T19:18:39.376Z,5.43
2019-03-11T19:21:07.299Z,6.57
2019-03-11T19:23:39.195Z,3.40
2019-03-11T19:26:07.665Z,5.17
2019-03-11T19:28:35.524Z,2.93
2019-03-11T19:31:03.879Z,4.00
2019-03-11T19:33:32.431Z,5.77
2019-03-11T19:36:00.958Z,7.03
2019-03-11T19:38:29.021Z,8.37
2019-03-11T19:40:57.032Z,6.23
2019-03-11T19:43:24.986Z,7.73
2019-03-11T19:45:53.094Z,2.07
2019-03-11T19:48:21.151Z,2.87
2019-03-11T19:50:49.334Z,2.40
2019-03-11T19:53:17.602Z,6.70
2019-03-11T19:55:47.676Z,3.47
2019-03-11T19:58:15.929Z,6.60
2019-03-11T20:00:43.962Z,5.40
2019-03-11T20:03:23.628Z,36.13
2019-03-11T20:05:42.319Z,6.60
2019-03-11T20:08:10.790Z,1.53
2019-03-11T20:10:39.024Z,1.53
2019-03-11T20:13:07.478Z,3.37
2019-03-11T20:15:53.835Z,2.97
2019-03-11T20:18:20.778Z,4.10
2019-03-11T20:20:50.650Z,2.13
2019-03-11T20:23:19.352Z,4.80
2019-03-11T20:25:47.453Z,3.13
2019-03-11T20:28:16.776Z,4.37
2019-03-11T20:30:45.642Z,4.07
2019-03-11T20:33:13.810Z,2.60
2019-03-11T20:35:41.730Z,3.30
2019-03-11T20:38:10.042Z,2.00
2019-03-11T20:40:38.031Z,2.40
2019-03-11T20:43:06.729Z,2.07
2019-03-11T20:45:34.677Z,0.87
2019-03-11T20:48:04.167Z,1.37
2019-03-11T20:50:41.531Z,1.67
2019-03-11T20:53:05.595Z,4.13
2019-03-11T20:55:34.227Z,0.80
2019-03-11T20:58:02.364Z,1.00
2019-03-11T21:00:30.270Z,2.20
2019-03-11T21:03:00.009Z,1.47
2019-03-11T21:05:28.605Z,1.70
2019-03-11T21:07:57.180Z,1.30
2019-03-11T21:10:25.185Z,1.20
2019-03-11T21:12:53.203Z,2.10
2019-03-11T21:15:55.732Z,3.13
2019-03-11T21:18:22.543Z,0.60
2019-03-11T21:20:55.147Z,1.03
2019-03-11T21:23:20.212Z,1.37
2019-03-11T21:26:19.356Z,4.13
2019-03-11T21:28:46.580Z,2.63
2019-03-11T21:31:14.483Z,3.23
2019-03-11T21:33:42.406Z,0.60
2019-03-11T21:36:10.362Z,0.83
2019-03-11T21:38:38.353Z,1.17
2019-03-11T21:41:06.189Z,0.80
2019-03-11T21:43:34.053Z,1.30
2019-03-11T21:46:02.147Z,1.13
2019-03-11T21:48:30.043Z,2.17
2019-03-11T21:50:57.994Z,2.53
2019-03-11T21:53:25.924Z,2.20
2019-03-11T21:55:53.909Z,1.47
2019-03-11T21:58:21.854Z,0.97
2019-03-11T22:00:49.811Z,1.10
2019-03-11T22:03:17.960Z,1.43
2019-03-11T22:05:45.960Z,1.50
2019-03-11T22:08:13.810Z,0.73
2019-03-11T22:10:41.940Z,1.73
2019-03-11T22:13:09.916Z,1.10
2019-03-11T22:16:18.943Z,1.30
2019-03-11T22:18:45.267Z,1.30
2019-03-11T22:21:13.197Z,2.07
2019-03-11T22:23:42.235Z,0.60
2019-03-11T22:26:10.287Z,1.80
2019-03-11T22:28:38.114Z,1.10
2019-03-11T22:31:06.004Z,1.47
2019-03-11T22:33:35.042Z,1.90
2019-03-11T22:36:03.081Z,0.63
2019-03-11T22:38:30.922Z,2.67
2019-03-11T22:40:58.763Z,0.77
2019-03-11T22:43:26.626Z,1.10
2019-03-11T22:45:54.487Z,1.93
2019-03-11T22:48:22.523Z,1.70
2019-03-11T22:50:50.384Z,2.23
2019-03-11T22:53:18.324Z,1.53
2019-03-11T22:55:46.292Z,0.70
2019-03-11T22:58:14.191Z,0.80
2019-03-11T23:01:04.630Z,2.00
2019-03-11T23:03:32.634Z,0.73
2019-03-11T23:06:00.577Z,1.63
2019-03-11T23:08:28.603Z,0.60
2019-03-11T23:10:56.713Z,0.50
2019-03-11T23:13:24.687Z,0.90
2019-03-11T23:15:52.639Z,2.70
2019-03-11T23:18:20.491Z,1.33
2019-03-11T23:20:48.799Z,1.90
2019-03-11T23:23:16.663Z,2.07
2019-03-11T23:25:44.603Z,0.83
2019-03-11T23:28:12.550Z,0.60
2019-03-11T23:30:40.544Z,0.73
2019-03-11T23:33:08.987Z,1.57
2019-03-11T23:35:36.959Z,0.93
2019-03-11T23:38:06.241Z,0.80
2019-03-11T23:40:34.148Z,0.67
2019-03-11T23:43:01.999Z,0.50
2019-03-11T23:45:29.881Z,0.50
2019-03-11T23:47:57.945Z,2.77
2019-03-11T23:50:25.879Z,0.70
2019-03-11T23:52:53.729Z,0.60
2019-03-11T23:55:21.707Z,0.73
2019-03-11T23:57:49.592Z,0.77
